sensor_id;sensor_type;location;lat;lon;timestamp;P1;durP1;ratioP1;P2;durP2;ratioP2
10711;SDS011;5407;51.234;6.804;2024-01-27T00:01:23;11.77;;;4.03;;
10711;SDS011;5407;51.234;6.804;2024-01-27T00:03:50;18.90;;;4.90;;
10711;SDS011;5407;51.234;6.804;2024-01-27T00:06:19;17.70;;;4.67;;
10711;SDS011;5407;51.234;6.804;2024-01-27T00:08:46;25.03;;;5.37;;
10711;SDS011;5407;51.234;6.804;2024-01-27T00:11:14;15.53;;;4.47;;
10711;SDS011;5407;51.234;6.804;2024-01-27T00:13:41;15.17;;;4.77;;
10711;SDS011;5407;51.234;6.804;2024-01-27T00:16:08;13.77;;;4.53;;
10711;SDS011;5407;51.234;6.804;2024-01-27T00:18:35;15.23;;;4.73;;
10711;SDS011;5407;51.234;6.804;2024-01-27T00:21:02;16.00;;;4.50;;
10711;SDS011;5407;51.234;6.804;2024-01-27T00:23:30;22.03;;;5.20;;
10711;SDS011;5407;51.234;6.804;2024-01-27T00:25:57;14.70;;;4.63;;
10711;SDS011;5407;51.234;6.804;2024-01-27T00:28:25;15.17;;;4.70;;
10711;SDS011;5407;51.234;6.804;2024-01-27T00:30:52;15.10;;;5.00;;
10711;SDS011;5407;51.234;6.804;2024-01-27T00:33:19;16.83;;;4.40;;
10711;SDS011;5407;51.234;6.804;2024-01-27T00:35:46;18.30;;;5.33;;
10711;SDS011;5407;51.234;6.804;2024-01-27T00:38:13;17.93;;;5.07;;
10711;SDS011;5407;51.234;6.804;2024-01-27T00:40:40;19.97;;;4.97;;
10711;SDS011;5407;51.234;6.804;2024-01-27T00:43:07;17.37;;;5.13;;
10711;SDS011;5407;51.234;6.804;2024-01-27T00:45:35;15.20;;;4.87;;
10711;SDS011;5407;51.234;6.804;2024-01-27T00:48:02;17.03;;;5.20;;
10711;SDS011;5407;51.234;6.804;2024-01-27T00:50:29;19.37;;;5.20;;
10711;SDS011;5407;51.234;6.804;2024-01-27T00:52:56;18.67;;;4.83;;
10711;SDS011;5407;51.234;6.804;2024-01-27T00:55:23;17.10;;;5.00;;
10711;SDS011;5407;51.234;6.804;2024-01-27T00:57:50;19.07;;;5.13;;
10711;SDS011;5407;51.234;6.804;2024-01-27T01:00:18;20.07;;;5.40;;
10711;SDS011;5407;51.234;6.804;2024-01-27T01:02:47;20.90;;;5.60;;
10711;SDS011;5407;51.234;6.804;2024-01-27T01:05:14;15.70;;;5.37;;
10711;SDS011;5407;51.234;6.804;2024-01-27T01:07:40;14.33;;;5.20;;
10711;SDS011;5407;51.234;6.804;2024-01-27T01:10:07;19.13;;;4.93;;
10711;SDS011;5407;51.234;6.804;2024-01-27T01:12:34;19.60;;;5.50;;
10711;SDS011;5407;51.234;6.804;2024-01-27T01:15:01;17.27;;;6.00;;
10711;SDS011;5407;51.234;6.804;2024-01-27T01:17:32;16.43;;;4.90;;
10711;SDS011;5407;51.234;6.804;2024-01-27T01:20:00;17.60;;;4.93;;
10711;SDS011;5407;51.234;6.804;2024-01-27T01:22:27;18.77;;;4.83;;
10711;SDS011;5407;51.234;6.804;2024-01-27T01:24:54;15.07;;;5.00;;
10711;SDS011;5407;51.234;6.804;2024-01-27T01:27:21;17.27;;;5.07;;
10711;SDS011;5407;51.234;6.804;2024-01-27T01:29:48;15.20;;;4.53;;
10711;SDS011;5407;51.234;6.804;2024-01-27T01:32:15;17.73;;;4.87;;
10711;SDS011;5407;51.234;6.804;2024-01-27T01:34:41;18.50;;;5.40;;
10711;SDS011;5407;51.234;6.804;2024-01-27T01:37:10;12.83;;;4.53;;
10711;SDS011;5407;51.234;6.804;2024-01-27T01:39:38;19.73;;;5.07;;
10711;SDS011;5407;51.234;6.804;2024-01-27T01:42:05;18.10;;;5.23;;
10711;SDS011;5407;51.234;6.804;2024-01-27T01:44:32;18.33;;;5.40;;
10711;SDS011;5407;51.234;6.804;2024-01-27T01:46:59;19.63;;;4.90;;
10711;SDS011;5407;51.234;6.804;2024-01-27T01:49:26;16.67;;;5.77;;
10711;SDS011;5407;51.234;6.804;2024-01-27T01:51:53;18.60;;;5.20;;
10711;SDS011;5407;51.234;6.804;2024-01-27T01:54:22;21.87;;;5.40;;
10711;SDS011;5407;51.234;6.804;2024-01-27T01:56:53;17.03;;;5.07;;
10711;SDS011;5407;51.234;6.804;2024-01-27T01:59:21;23.37;;;6.00;;
10711;SDS011;5407;51.234;6.804;2024-01-27T02:01:48;20.10;;;4.97;;
10711;SDS011;5407;51.234;6.804;2024-01-27T02:04:14;21.90;;;5.47;;
10711;SDS011;5407;51.234;6.804;2024-01-27T02:06:41;16.83;;;5.23;;
10711;SDS011;5407;51.234;6.804;2024-01-27T02:09:08;23.20;;;5.87;;
10711;SDS011;5407;51.234;6.804;2024-01-27T02:11:37;15.00;;;5.30;;
10711;SDS011;5407;51.234;6.804;2024-01-27T02:14:03;14.40;;;5.33;;
10711;SDS011;5407;51.234;6.804;2024-01-27T02:16:31;22.03;;;6.03;;
10711;SDS011;5407;51.234;6.804;2024-01-27T02:18:57;17.80;;;5.33;;
10711;SDS011;5407;51.234;6.804;2024-01-27T02:21:24;18.07;;;4.83;;
10711;SDS011;5407;51.234;6.804;2024-01-27T02:23:51;18.20;;;5.10;;
10711;SDS011;5407;51.234;6.804;2024-01-27T02:26:19;17.70;;;5.20;;
10711;SDS011;5407;51.234;6.804;2024-01-27T02:28:46;14.13;;;4.97;;
10711;SDS011;5407;51.234;6.804;2024-01-27T02:31:13;16.77;;;5.00;;
10711;SDS011;5407;51.234;6.804;2024-01-27T02:33:40;16.07;;;5.30;;
10711;SDS011;5407;51.234;6.804;2024-01-27T02:36:06;18.93;;;5.70;;
10711;SDS011;5407;51.234;6.804;2024-01-27T02:38:33;18.73;;;5.40;;
10711;SDS011;5407;51.234;6.804;2024-01-27T02:41:00;17.80;;;5.27;;
10711;SDS011;5407;51.234;6.804;2024-01-27T02:43:28;25.33;;;5.80;;
10711;SDS011;5407;51.234;6.804;2024-01-27T02:45:55;16.03;;;5.30;;
10711;SDS011;5407;51.234;6.804;2024-01-27T02:48:22;16.67;;;5.20;;
10711;SDS011;5407;51.234;6.804;2024-01-27T02:50:49;16.77;;;5.63;;
10711;SDS011;5407;51.234;6.804;2024-01-27T02:53:15;22.10;;;4.90;;
10711;SDS011;5407;51.234;6.804;2024-01-27T02:55:42;18.60;;;5.30;;
10711;SDS011;5407;51.234;6.804;2024-01-27T02:58:10;14.03;;;5.43;;
10711;SDS011;5407;51.234;6.804;2024-01-27T03:00:38;20.67;;;5.47;;
10711;SDS011;5407;51.234;6.804;2024-01-27T03:03:05;16.60;;;5.40;;
10711;SDS011;5407;51.234;6.804;2024-01-27T03:05:32;16.27;;;5.47;;
10711;SDS011;5407;51.234;6.804;2024-01-27T03:07:59;19.07;;;5.60;;
10711;SDS011;5407;51.234;6.804;2024-01-27T03:10:26;16.70;;;5.57;;
10711;SDS011;5407;51.234;6.804;2024-01-27T03:12:53;15.13;;;4.93;;
10711;SDS011;5407;51.234;6.804;2024-01-27T03:15:20;13.87;;;5.23;;
10711;SDS011;5407;51.234;6.804;2024-01-27T03:17:49;16.73;;;5.27;;
10711;SDS011;5407;51.234;6.804;2024-01-27T03:20:16;15.43;;;5.70;;
10711;SDS011;5407;51.234;6.804;2024-01-27T03:22:42;18.43;;;5.23;;
10711;SDS011;5407;51.234;6.804;2024-01-27T03:25:09;20.97;;;5.90;;
10711;SDS011;5407;51.234;6.804;2024-01-27T03:27:36;14.40;;;5.53;;
10711;SDS011;5407;51.234;6.804;2024-01-27T03:30:04;16.77;;;5.50;;
10711;SDS011;5407;51.234;6.804;2024-01-27T03:32:32;15.53;;;5.60;;
10711;SDS011;5407;51.234;6.804;2024-01-27T03:35:00;13.27;;;5.00;;
10711;SDS011;5407;51.234;6.804;2024-01-27T03:37:27;21.43;;;5.63;;
10711;SDS011;5407;51.234;6.804;2024-01-27T03:39:54;15.97;;;5.33;;
10711;SDS011;5407;51.234;6.804;2024-01-27T03:42:21;18.90;;;5.57;;
10711;SDS011;5407;51.234;6.804;2024-01-27T03:44:49;16.17;;;5.83;;
10711;SDS011;5407;51.234;6.804;2024-01-27T03:47:16;17.27;;;5.53;;
10711;SDS011;5407;51.234;6.804;2024-01-27T03:49:43;15.77;;;5.73;;
10711;SDS011;5407;51.234;6.804;2024-01-27T03:52:12;17.37;;;5.83;;
10711;SDS011;5407;51.234;6.804;2024-01-27T03:54:38;14.93;;;5.40;;
10711;SDS011;5407;51.234;6.804;2024-01-27T03:57:05;19.20;;;6.10;;
10711;SDS011;5407;51.234;6.804;2024-01-27T03:59:32;17.53;;;5.87;;
10711;SDS011;5407;51.234;6.804;2024-01-27T04:01:59;16.83;;;5.30;;
10711;SDS011;5407;51.234;6.804;2024-01-27T04:04:26;19.37;;;6.00;;
10711;SDS011;5407;51.234;6.804;2024-01-27T04:06:53;15.23;;;5.63;;
10711;SDS011;5407;51.234;6.804;2024-01-27T04:09:21;17.70;;;5.50;;
10711;SDS011;5407;51.234;6.804;2024-01-27T04:11:48;13.40;;;5.00;;
10711;SDS011;5407;51.234;6.804;2024-01-27T04:14:15;15.40;;;4.73;;
10711;SDS011;5407;51.234;6.804;2024-01-27T04:16:42;16.30;;;5.13;;
10711;SDS011;5407;51.234;6.804;2024-01-27T04:19:08;18.33;;;5.37;;
10711;SDS011;5407;51.234;6.804;2024-01-27T04:21:35;16.20;;;5.33;;
10711;SDS011;5407;51.234;6.804;2024-01-27T04:24:02;14.40;;;5.40;;
10711;SDS011;5407;51.234;6.804;2024-01-27T04:26:31;14.47;;;5.47;;
10711;SDS011;5407;51.234;6.804;2024-01-27T04:28:57;16.20;;;5.30;;
10711;SDS011;5407;51.234;6.804;2024-01-27T04:31:24;18.00;;;5.50;;
10711;SDS011;5407;51.234;6.804;2024-01-27T04:33:51;15.07;;;5.63;;
10711;SDS011;5407;51.234;6.804;2024-01-27T04:36:24;19.67;;;5.27;;
10711;SDS011;5407;51.234;6.804;2024-01-27T04:38:52;19.53;;;5.67;;
10711;SDS011;5407;51.234;6.804;2024-01-27T04:41:19;18.83;;;5.50;;
10711;SDS011;5407;51.234;6.804;2024-01-27T04:43:47;17.00;;;5.50;;
10711;SDS011;5407;51.234;6.804;2024-01-27T04:46:15;18.77;;;5.83;;
10711;SDS011;5407;51.234;6.804;2024-01-27T04:48:42;18.23;;;5.43;;
10711;SDS011;5407;51.234;6.804;2024-01-27T04:51:09;16.80;;;5.80;;
10711;SDS011;5407;51.234;6.804;2024-01-27T04:53:36;17.97;;;6.10;;
10711;SDS011;5407;51.234;6.804;2024-01-27T04:56:03;16.77;;;5.70;;
10711;SDS011;5407;51.234;6.804;2024-01-27T04:58:33;19.23;;;6.03;;
10711;SDS011;5407;51.234;6.804;2024-01-27T05:01:01;17.40;;;5.67;;
10711;SDS011;5407;51.234;6.804;2024-01-27T05:03:28;14.07;;;5.70;;
10711;SDS011;5407;51.234;6.804;2024-01-27T05:05:55;14.80;;;5.40;;
10711;SDS011;5407;51.234;6.804;2024-01-27T05:08:22;20.63;;;5.80;;
10711;SDS011;5407;51.234;6.804;2024-01-27T05:10:49;18.67;;;5.50;;
10711;SDS011;5407;51.234;6.804;2024-01-27T05:13:15;15.80;;;5.40;;
10711;SDS011;5407;51.234;6.804;2024-01-27T05:15:42;13.60;;;5.70;;
10711;SDS011;5407;51.234;6.804;2024-01-27T05:18:11;20.37;;;5.70;;
10711;SDS011;5407;51.234;6.804;2024-01-27T05:20:37;14.53;;;5.67;;
10711;SDS011;5407;51.234;6.804;2024-01-27T05:23:04;18.03;;;6.30;;
10711;SDS011;5407;51.234;6.804;2024-01-27T05:25:31;22.07;;;5.70;;
10711;SDS011;5407;51.234;6.804;2024-01-27T05:27:58;16.47;;;5.53;;
10711;SDS011;5407;51.234;6.804;2024-01-27T05:30:25;17.37;;;6.03;;
10711;SDS011;5407;51.234;6.804;2024-01-27T05:32:51;19.13;;;5.70;;
10711;SDS011;5407;51.234;6.804;2024-01-27T05:35:19;20.03;;;5.50;;
10711;SDS011;5407;51.234;6.804;2024-01-27T05:37:46;19.23;;;5.73;;
10711;SDS011;5407;51.234;6.804;2024-01-27T05:40:13;19.77;;;6.07;;
10711;SDS011;5407;51.234;6.804;2024-01-27T05:42:40;17.57;;;5.80;;
10711;SDS011;5407;51.234;6.804;2024-01-27T05:45:10;22.53;;;5.90;;
10711;SDS011;5407;51.234;6.804;2024-01-27T05:47:37;16.37;;;5.53;;
10711;SDS011;5407;51.234;6.804;2024-01-27T05:50:04;16.73;;;5.60;;
10711;SDS011;5407;51.234;6.804;2024-01-27T05:52:34;15.57;;;5.70;;
10711;SDS011;5407;51.234;6.804;2024-01-27T05:55:01;17.30;;;5.70;;
10711;SDS011;5407;51.234;6.804;2024-01-27T05:57:31;18.77;;;5.67;;
10711;SDS011;5407;51.234;6.804;2024-01-27T05:59:58;20.47;;;5.70;;
10711;SDS011;5407;51.234;6.804;2024-01-27T06:02:25;19.43;;;5.27;;
10711;SDS011;5407;51.234;6.804;2024-01-27T06:04:52;16.73;;;5.40;;
10711;SDS011;5407;51.234;6.804;2024-01-27T06:07:19;15.63;;;5.23;;
10711;SDS011;5407;51.234;6.804;2024-01-27T06:09:47;16.70;;;5.40;;
10711;SDS011;5407;51.234;6.804;2024-01-27T06:12:14;19.00;;;5.43;;
10711;SDS011;5407;51.234;6.804;2024-01-27T06:14:40;17.87;;;5.53;;
10711;SDS011;5407;51.234;6.804;2024-01-27T06:17:08;18.37;;;5.67;;
10711;SDS011;5407;51.234;6.804;2024-01-27T06:19:34;19.13;;;5.67;;
10711;SDS011;5407;51.234;6.804;2024-01-27T06:22:01;17.23;;;6.13;;
10711;SDS011;5407;51.234;6.804;2024-01-27T06:24:28;15.17;;;5.60;;
10711;SDS011;5407;51.234;6.804;2024-01-27T06:26:56;17.50;;;6.47;;
10711;SDS011;5407;51.234;6.804;2024-01-27T06:29:23;14.60;;;5.97;;
10711;SDS011;5407;51.234;6.804;2024-01-27T06:31:52;18.20;;;5.83;;
10711;SDS011;5407;51.234;6.804;2024-01-27T06:34:18;16.57;;;5.67;;
10711;SDS011;5407;51.234;6.804;2024-01-27T06:36:45;17.97;;;6.23;;
10711;SDS011;5407;51.234;6.804;2024-01-27T06:39:12;19.97;;;6.10;;
10711;SDS011;5407;51.234;6.804;2024-01-27T06:41:39;21.53;;;6.23;;
10711;SDS011;5407;51.234;6.804;2024-01-27T06:44:07;20.23;;;6.20;;
10711;SDS011;5407;51.234;6.804;2024-01-27T06:46:34;18.97;;;6.63;;
10711;SDS011;5407;51.234;6.804;2024-01-27T06:49:01;17.77;;;6.03;;
10711;SDS011;5407;51.234;6.804;2024-01-27T06:51:28;16.67;;;6.10;;
10711;SDS011;5407;51.234;6.804;2024-01-27T06:53:55;18.47;;;5.77;;
10711;SDS011;5407;51.234;6.804;2024-01-27T06:56:21;22.20;;;6.33;;
10711;SDS011;5407;51.234;6.804;2024-01-27T06:58:48;15.90;;;6.30;;
10711;SDS011;5407;51.234;6.804;2024-01-27T07:01:16;19.50;;;6.07;;
10711;SDS011;5407;51.234;6.804;2024-01-27T07:03:43;17.60;;;5.83;;
10711;SDS011;5407;51.234;6.804;2024-01-27T07:06:10;16.17;;;6.20;;
10711;SDS011;5407;51.234;6.804;2024-01-27T07:08:37;17.27;;;6.33;;
10711;SDS011;5407;51.234;6.804;2024-01-27T07:11:04;18.17;;;5.90;;
10711;SDS011;5407;51.234;6.804;2024-01-27T07:13:31;17.03;;;6.17;;
10711;SDS011;5407;51.234;6.804;2024-01-27T07:15:58;14.50;;;5.97;;
10711;SDS011;5407;51.234;6.804;2024-01-27T07:18:27;16.23;;;5.90;;
10711;SDS011;5407;51.234;6.804;2024-01-27T07:20:54;21.27;;;6.30;;
10711;SDS011;5407;51.234;6.804;2024-01-27T07:23:21;21.20;;;6.40;;
10711;SDS011;5407;51.234;6.804;2024-01-27T07:25:48;20.37;;;7.27;;
10711;SDS011;5407;51.234;6.804;2024-01-27T07:28:13;26.00;;;6.90;;
10711;SDS011;5407;51.234;6.804;2024-01-27T07:30:41;15.47;;;6.23;;
10711;SDS011;5407;51.234;6.804;2024-01-27T07:33:08;19.33;;;6.90;;
10711;SDS011;5407;51.234;6.804;2024-01-27T07:35:36;17.67;;;6.27;;
10711;SDS011;5407;51.234;6.804;2024-01-27T07:38:03;18.70;;;5.93;;
10711;SDS011;5407;51.234;6.804;2024-01-27T07:40:30;19.10;;;6.10;;
10711;SDS011;5407;51.234;6.804;2024-01-27T07:42:57;18.13;;;5.97;;
10711;SDS011;5407;51.234;6.804;2024-01-27T07:45:24;17.57;;;6.90;;
10711;SDS011;5407;51.234;6.804;2024-01-27T07:47:50;16.40;;;6.67;;
10711;SDS011;5407;51.234;6.804;2024-01-27T07:50:17;19.63;;;6.50;;
10711;SDS011;5407;51.234;6.804;2024-01-27T07:52:46;18.43;;;6.20;;
10711;SDS011;5407;51.234;6.804;2024-01-27T07:55:12;16.77;;;6.67;;
10711;SDS011;5407;51.234;6.804;2024-01-27T07:57:39;21.03;;;6.80;;
10711;SDS011;5407;51.234;6.804;2024-01-27T08:00:07;15.70;;;6.33;;
10711;SDS011;5407;51.234;6.804;2024-01-27T08:02:34;22.37;;;6.80;;
10711;SDS011;5407;51.234;6.804;2024-01-27T08:05:02;19.40;;;6.37;;
10711;SDS011;5407;51.234;6.804;2024-01-27T08:07:29;17.07;;;6.37;;
10711;SDS011;5407;51.234;6.804;2024-01-27T08:09:58;18.27;;;6.50;;
10711;SDS011;5407;51.234;6.804;2024-01-27T08:12:25;20.37;;;6.17;;
10711;SDS011;5407;51.234;6.804;2024-01-27T08:14:52;15.90;;;6.23;;
10711;SDS011;5407;51.234;6.804;2024-01-27T08:17:20;17.77;;;6.27;;
10711;SDS011;5407;51.234;6.804;2024-01-27T08:19:47;17.90;;;5.83;;
10711;SDS011;5407;51.234;6.804;2024-01-27T08:22:14;21.17;;;6.53;;
10711;SDS011;5407;51.234;6.804;2024-01-27T08:24:41;19.37;;;6.27;;
10711;SDS011;5407;51.234;6.804;2024-01-27T08:27:09;18.87;;;6.33;;
10711;SDS011;5407;51.234;6.804;2024-01-27T08:29:36;24.23;;;6.50;;
10711;SDS011;5407;51.234;6.804;2024-01-27T08:32:03;19.47;;;6.57;;
10711;SDS011;5407;51.234;6.804;2024-01-27T08:34:30;16.77;;;6.40;;
10711;SDS011;5407;51.234;6.804;2024-01-27T08:36:59;17.50;;;5.67;;
10711;SDS011;5407;51.234;6.804;2024-01-27T08:39:27;17.33;;;5.80;;
10711;SDS011;5407;51.234;6.804;2024-01-27T08:41:54;15.43;;;5.70;;
10711;SDS011;5407;51.234;6.804;2024-01-27T08:44:24;19.77;;;6.13;;
10711;SDS011;5407;51.234;6.804;2024-01-27T08:46:51;14.80;;;5.67;;
10711;SDS011;5407;51.234;6.804;2024-01-27T08:49:18;22.30;;;6.37;;
10711;SDS011;5407;51.234;6.804;2024-01-27T08:51:45;16.30;;;5.77;;
10711;SDS011;5407;51.234;6.804;2024-01-27T08:54:12;20.13;;;6.03;;
10711;SDS011;5407;51.234;6.804;2024-01-27T08:56:39;17.73;;;5.90;;
10711;SDS011;5407;51.234;6.804;2024-01-27T08:59:06;13.73;;;5.23;;
10711;SDS011;5407;51.234;6.804;2024-01-27T09:01:34;17.90;;;5.87;;
10711;SDS011;5407;51.234;6.804;2024-01-27T09:04:01;18.93;;;6.30;;
10711;SDS011;5407;51.234;6.804;2024-01-27T09:06:28;20.37;;;6.10;;
10711;SDS011;5407;51.234;6.804;2024-01-27T09:08:55;14.37;;;5.50;;
10711;SDS011;5407;51.234;6.804;2024-01-27T09:11:22;21.07;;;6.67;;
10711;SDS011;5407;51.234;6.804;2024-01-27T09:13:52;17.53;;;6.47;;
10711;SDS011;5407;51.234;6.804;2024-01-27T09:16:19;17.00;;;6.00;;
10711;SDS011;5407;51.234;6.804;2024-01-27T09:18:48;18.13;;;6.60;;
10711;SDS011;5407;51.234;6.804;2024-01-27T09:21:15;17.03;;;5.83;;
10711;SDS011;5407;51.234;6.804;2024-01-27T09:23:45;18.93;;;6.10;;
10711;SDS011;5407;51.234;6.804;2024-01-27T09:26:12;18.70;;;5.97;;
10711;SDS011;5407;51.234;6.804;2024-01-27T09:28:40;21.00;;;5.60;;
10711;SDS011;5407;51.234;6.804;2024-01-27T09:31:09;12.90;;;5.03;;
10711;SDS011;5407;51.234;6.804;2024-01-27T09:33:37;15.73;;;5.40;;
10711;SDS011;5407;51.234;6.804;2024-01-27T09:36:05;17.13;;;5.30;;
10711;SDS011;5407;51.234;6.804;2024-01-27T09:38:32;16.90;;;5.70;;
10711;SDS011;5407;51.234;6.804;2024-01-27T09:40:59;18.13;;;5.20;;
10711;SDS011;5407;51.234;6.804;2024-01-27T09:43:26;15.63;;;4.50;;
10711;SDS011;5407;51.234;6.804;2024-01-27T09:45:56;12.77;;;5.00;;
10711;SDS011;5407;51.234;6.804;2024-01-27T09:48:23;11.50;;;4.80;;
10711;SDS011;5407;51.234;6.804;2024-01-27T09:50:50;12.07;;;4.73;;
10711;SDS011;5407;51.234;6.804;2024-01-27T09:53:21;13.03;;;4.60;;
10711;SDS011;5407;51.234;6.804;2024-01-27T09:55:48;12.13;;;4.77;;
10711;SDS011;5407;51.234;6.804;2024-01-27T09:58:15;14.90;;;5.43;;
10711;SDS011;5407;51.234;6.804;2024-01-27T10:00:42;19.23;;;4.80;;
10711;SDS011;5407;51.234;6.804;2024-01-27T10:03:10;15.83;;;5.00;;
10711;SDS011;5407;51.234;6.804;2024-01-27T10:05:37;9.10;;;4.50;;
10711;SDS011;5407;51.234;6.804;2024-01-27T10:08:05;16.10;;;4.90;;
10711;SDS011;5407;51.234;6.804;2024-01-27T10:10:35;20.13;;;5.30;;
10711;SDS011;5407;51.234;6.804;2024-01-27T10:13:02;15.33;;;5.20;;
10711;SDS011;5407;51.234;6.804;2024-01-27T10:15:31;18.20;;;4.90;;
10711;SDS011;5407;51.234;6.804;2024-01-27T10:18:04;16.63;;;5.10;;
10711;SDS011;5407;51.234;6.804;2024-01-27T10:20:32;11.20;;;4.77;;
10711;SDS011;5407;51.234;6.804;2024-01-27T10:22:59;16.77;;;5.20;;
10711;SDS011;5407;51.234;6.804;2024-01-27T10:25:38;15.50;;;5.17;;
10711;SDS011;5407;51.234;6.804;2024-01-27T10:28:06;17.33;;;5.43;;
10711;SDS011;5407;51.234;6.804;2024-01-27T10:30:34;11.47;;;4.60;;
10711;SDS011;5407;51.234;6.804;2024-01-27T10:33:01;18.17;;;5.00;;
10711;SDS011;5407;51.234;6.804;2024-01-27T10:35:28;15.47;;;4.80;;
10711;SDS011;5407;51.234;6.804;2024-01-27T10:37:56;15.77;;;5.23;;
10711;SDS011;5407;51.234;6.804;2024-01-27T10:40:23;15.57;;;5.60;;
10711;SDS011;5407;51.234;6.804;2024-01-27T10:42:56;15.52;;;5.35;;
10711;SDS011;5407;51.234;6.804;2024-01-27T10:45:28;12.65;;;4.88;;
10711;SDS011;5407;51.234;6.804;2024-01-27T10:48:00;13.63;;;5.03;;
10711;SDS011;5407;51.234;6.804;2024-01-27T10:50:28;18.10;;;5.28;;
10711;SDS011;5407;51.234;6.804;2024-01-27T10:52:56;21.65;;;5.50;;
10711;SDS011;5407;51.234;6.804;2024-01-27T10:55:24;15.38;;;5.03;;
10711;SDS011;5407;51.234;6.804;2024-01-27T10:57:53;15.05;;;5.28;;
10711;SDS011;5407;51.234;6.804;2024-01-27T11:00:22;13.98;;;5.10;;
10711;SDS011;5407;51.234;6.804;2024-01-27T11:02:51;15.43;;;5.18;;
10711;SDS011;5407;51.234;6.804;2024-01-27T11:05:20;14.20;;;5.38;;
10711;SDS011;5407;51.234;6.804;2024-01-27T11:07:49;13.32;;;5.75;;
10711;SDS011;5407;51.234;6.804;2024-01-27T11:10:17;14.07;;;5.10;;
10711;SDS011;5407;51.234;6.804;2024-01-27T11:12:44;14.20;;;5.38;;
10711;SDS011;5407;51.234;6.804;2024-01-27T11:15:15;19.05;;;5.50;;
10711;SDS011;5407;51.234;6.804;2024-01-27T11:17:42;15.80;;;5.40;;
10711;SDS011;5407;51.234;6.804;2024-01-27T11:20:10;16.63;;;5.30;;
10711;SDS011;5407;51.234;6.804;2024-01-27T11:22:38;15.23;;;5.57;;
10711;SDS011;5407;51.234;6.804;2024-01-27T11:25:08;16.30;;;5.15;;
10711;SDS011;5407;51.234;6.804;2024-01-27T11:27:41;12.98;;;5.20;;
10711;SDS011;5407;51.234;6.804;2024-01-27T11:30:25;15.07;;;5.18;;
10711;SDS011;5407;51.234;6.804;2024-01-27T11:32:54;14.40;;;5.72;;
10711;SDS011;5407;51.234;6.804;2024-01-27T11:35:22;16.42;;;5.15;;
10711;SDS011;5407;51.234;6.804;2024-01-27T11:37:49;16.93;;;5.27;;
10711;SDS011;5407;51.234;6.804;2024-01-27T11:40:16;17.90;;;5.70;;
10711;SDS011;5407;51.234;6.804;2024-01-27T11:42:43;19.00;;;5.80;;
10711;SDS011;5407;51.234;6.804;2024-01-27T11:45:09;16.90;;;5.47;;
10711;SDS011;5407;51.234;6.804;2024-01-27T11:47:38;19.27;;;5.70;;
10711;SDS011;5407;51.234;6.804;2024-01-27T11:50:05;16.95;;;5.55;;
10711;SDS011;5407;51.234;6.804;2024-01-27T11:52:33;17.47;;;5.37;;
10711;SDS011;5407;51.234;6.804;2024-01-27T11:55:00;14.38;;;5.00;;
10711;SDS011;5407;51.234;6.804;2024-01-27T11:57:27;18.80;;;5.15;;
10711;SDS011;5407;51.234;6.804;2024-01-27T11:59:54;14.75;;;5.18;;
10711;SDS011;5407;51.234;6.804;2024-01-27T12:02:21;13.93;;;4.95;;
10711;SDS011;5407;51.234;6.804;2024-01-27T12:04:50;16.93;;;4.90;;
10711;SDS011;5407;51.234;6.804;2024-01-27T12:07:18;11.30;;;5.10;;
10711;SDS011;5407;51.234;6.804;2024-01-27T12:09:46;16.83;;;5.80;;
10711;SDS011;5407;51.234;6.804;2024-01-27T12:12:15;16.05;;;5.55;;
10711;SDS011;5407;51.234;6.804;2024-01-27T12:14:44;17.63;;;4.78;;
10711;SDS011;5407;51.234;6.804;2024-01-27T12:17:12;15.13;;;5.03;;
10711;SDS011;5407;51.234;6.804;2024-01-27T12:19:39;12.20;;;4.90;;
10711;SDS011;5407;51.234;6.804;2024-01-27T12:22:21;15.77;;;4.72;;
10711;SDS011;5407;51.234;6.804;2024-01-27T12:24:51;12.95;;;4.82;;
10711;SDS011;5407;51.234;6.804;2024-01-27T12:27:17;12.65;;;4.60;;
10711;SDS011;5407;51.234;6.804;2024-01-27T12:29:45;12.98;;;4.60;;
10711;SDS011;5407;51.234;6.804;2024-01-27T12:32:14;16.30;;;5.25;;
10711;SDS011;5407;51.234;6.804;2024-01-27T12:34:41;13.40;;;4.78;;
10711;SDS011;5407;51.234;6.804;2024-01-27T12:37:08;14.77;;;4.60;;
10711;SDS011;5407;51.234;6.804;2024-01-27T12:39:38;13.38;;;4.70;;
10711;SDS011;5407;51.234;6.804;2024-01-27T12:42:09;14.15;;;4.53;;
10711;SDS011;5407;51.234;6.804;2024-01-27T12:44:37;17.08;;;5.15;;
10711;SDS011;5407;51.234;6.804;2024-01-27T12:47:04;20.15;;;4.70;;
10711;SDS011;5407;51.234;6.804;2024-01-27T12:49:31;15.63;;;4.22;;
10711;SDS011;5407;51.234;6.804;2024-01-27T12:51:58;13.93;;;4.15;;
10711;SDS011;5407;51.234;6.804;2024-01-27T12:54:25;13.60;;;4.17;;
10711;SDS011;5407;51.234;6.804;2024-01-27T12:56:53;12.70;;;4.10;;
10711;SDS011;5407;51.234;6.804;2024-01-27T12:59:21;11.47;;;3.93;;
10711;SDS011;5407;51.234;6.804;2024-01-27T13:01:48;11.93;;;3.70;;
10711;SDS011;5407;51.234;6.804;2024-01-27T13:04:15;12.97;;;3.87;;
10711;SDS011;5407;51.234;6.804;2024-01-27T13:06:42;11.33;;;3.90;;
10711;SDS011;5407;51.234;6.804;2024-01-27T13:09:10;12.50;;;3.60;;
10711;SDS011;5407;51.234;6.804;2024-01-27T13:11:37;14.50;;;3.77;;
10711;SDS011;5407;51.234;6.804;2024-01-27T13:14:06;13.47;;;3.60;;
10711;SDS011;5407;51.234;6.804;2024-01-27T13:16:34;13.63;;;3.97;;
10711;SDS011;5407;51.234;6.804;2024-01-27T13:19:01;11.70;;;3.53;;
10711;SDS011;5407;51.234;6.804;2024-01-27T13:21:28;13.53;;;3.97;;
10711;SDS011;5407;51.234;6.804;2024-01-27T13:23:55;12.17;;;3.80;;
10711;SDS011;5407;51.234;6.804;2024-01-27T13:26:22;9.60;;;4.00;;
10711;SDS011;5407;51.234;6.804;2024-01-27T13:28:49;10.03;;;3.43;;
10711;SDS011;5407;51.234;6.804;2024-01-27T13:31:17;14.20;;;4.10;;
10711;SDS011;5407;51.234;6.804;2024-01-27T13:33:44;12.27;;;4.17;;
10711;SDS011;5407;51.234;6.804;2024-01-27T13:36:11;12.97;;;4.13;;
10711;SDS011;5407;51.234;6.804;2024-01-27T13:38:38;11.20;;;3.80;;
10711;SDS011;5407;51.234;6.804;2024-01-27T13:41:04;12.43;;;3.70;;
10711;SDS011;5407;51.234;6.804;2024-01-27T13:43:31;14.17;;;4.37;;
10711;SDS011;5407;51.234;6.804;2024-01-27T13:45:58;16.37;;;4.13;;
10711;SDS011;5407;51.234;6.804;2024-01-27T13:48:26;10.33;;;3.70;;
10711;SDS011;5407;51.234;6.804;2024-01-27T13:50:53;13.10;;;3.80;;
10711;SDS011;5407;51.234;6.804;2024-01-27T13:53:20;11.30;;;3.57;;
10711;SDS011;5407;51.234;6.804;2024-01-27T13:55:47;14.17;;;3.97;;
10711;SDS011;5407;51.234;6.804;2024-01-27T13:58:13;18.07;;;3.93;;
10711;SDS011;5407;51.234;6.804;2024-01-27T14:00:40;12.13;;;3.30;;
10711;SDS011;5407;51.234;6.804;2024-01-27T14:03:07;12.40;;;3.70;;
10711;SDS011;5407;51.234;6.804;2024-01-27T14:05:36;9.53;;;3.30;;
10711;SDS011;5407;51.234;6.804;2024-01-27T14:08:03;12.70;;;3.80;;
10711;SDS011;5407;51.234;6.804;2024-01-27T14:10:32;12.10;;;4.10;;
10711;SDS011;5407;51.234;6.804;2024-01-27T14:12:58;12.13;;;4.07;;
10711;SDS011;5407;51.234;6.804;2024-01-27T14:15:28;16.27;;;4.33;;
10711;SDS011;5407;51.234;6.804;2024-01-27T14:17:54;17.60;;;4.03;;
10711;SDS011;5407;51.234;6.804;2024-01-27T14:20:21;13.27;;;3.57;;
10711;SDS011;5407;51.234;6.804;2024-01-27T14:22:49;13.10;;;4.17;;
10711;SDS011;5407;51.234;6.804;2024-01-27T14:25:16;23.13;;;8.83;;
10711;SDS011;5407;51.234;6.804;2024-01-27T14:27:44;16.43;;;3.97;;
10711;SDS011;5407;51.234;6.804;2024-01-27T14:30:11;12.57;;;3.90;;
10711;SDS011;5407;51.234;6.804;2024-01-27T14:32:39;13.30;;;3.50;;
10711;SDS011;5407;51.234;6.804;2024-01-27T14:35:06;10.77;;;3.30;;
10711;SDS011;5407;51.234;6.804;2024-01-27T14:37:33;14.17;;;3.20;;
10711;SDS011;5407;51.234;6.804;2024-01-27T14:40:02;16.90;;;3.70;;
10711;SDS011;5407;51.234;6.804;2024-01-27T14:42:30;11.93;;;3.30;;
10711;SDS011;5407;51.234;6.804;2024-01-27T14:44:57;13.13;;;3.43;;
10711;SDS011;5407;51.234;6.804;2024-01-27T14:47:24;13.07;;;3.77;;
10711;SDS011;5407;51.234;6.804;2024-01-27T14:49:51;10.80;;;3.40;;